This is the latest recevied weather packets stored in our database for station/object KB1JDX. If no packets are shown the sender has not sent any weather packets the latest 10 day(s).
| Time | Temp. | Humidity | Pressure | Rain* | Wind** | Luminosity | Snow |
|---|---|---|---|---|---|---|---|
| 1778192436 | 15° C | 37% | 1006.7 hPa | 0 mm | 0.45 m/s, 334° | - | - |
| 1778192368 | 15° C | 37% | 1006.7 hPa | 0 mm | 1.79 m/s, 341° | - | - |
| 1778191237 | 15.56° C | 37% | 1006.7 hPa | 0 mm | 0 m/s | - | - |
| 1778190037 | 15.56° C | 36% | 1006.6 hPa | 0 mm | 1.79 m/s, 298° | - | - |
| 1778188838 | 16.11° C | 37% | 1006.1 hPa | 0 mm | 2.68 m/s, 299° | - | - |
| 1778188768 | 16.11° C | 37% | 1006 hPa | 0 mm | 2.24 m/s, 297° | - | - |
| 1778187636 | 16.67° C | 37% | 1005.9 hPa | 0 mm | 2.68 m/s, 301° | - | - |
| 1778186437 | 17.22° C | 36% | 1005.9 hPa | 0 mm | 0.45 m/s, 21° | - | - |
| 1778185238 | 17.78° C | 35% | 1005.8 hPa | 0 mm | 0 m/s | - | - |
| 1778185168 | 17.78° C | 35% | 1005.7 hPa | 0 mm | 0 m/s | - | - |
| 1778184037 | 17.78° C | 36% | 1005.9 hPa | 0 mm | 0 m/s | - | - |
| 1778182837 | 18.33° C | 34% | 1005.8 hPa | 0 mm | 0 m/s | - | - |
| 1778181637 | 17.78° C | 34% | 1006.2 hPa | 0 mm | 0 m/s | - | - |
| 1778181568 | 17.78° C | 34% | 1006.2 hPa | 0 mm | 0 m/s | - | - |
| 1778180438 | 17.22° C | 35% | 1006.4 hPa | 0 mm | 2.24 m/s, 302° | - | - |
| 1778178037 | 17.78° C | 35% | 1006.6 hPa | 0 mm | 2.68 m/s, 313° | - | - |
| 1778177968 | 17.78° C | 35% | 1006.6 hPa | 0 mm | 3.13 m/s, 318° | - | - |
| 1778176837 | 17.78° C | 35% | 1006.9 hPa | 0 mm | 0 m/s | - | - |
| 1778175636 | 17.78° C | 37% | 1007.1 hPa | 0 mm | 0 m/s | - | - |
| 1778174437 | 17.22° C | 41% | 1007.2 hPa | 0 mm | 0 m/s | - | - |
| 1778174368 | 16.67° C | 40% | 1007.1 hPa | 0 mm | 0 m/s | - | - |
| 1778173237 | 16.67° C | 40% | 1007.3 hPa | 0 mm | 0 m/s | - | - |
| 1778172036 | 16.11° C | 40% | 1007.6 hPa | 0 mm | 0 m/s | - | - |
| 1778170838 | 16.11° C | 40% | 1007.8 hPa | 0 mm | 0 m/s | - | - |
| 1778170768 | 16.11° C | 41% | 1007.9 hPa | 0 mm | 2.68 m/s, 33° | - | - |
* Rain latest hour (hover to see other rain measurements)
** Current wind speed in m/s (hover to see current wind gust speed)